Time;durP1;ratioP1;P1;durP2;ratioP2;P2;SDS_P1;SDS_P2;PMS_P1;PMS_P2;Temp;Humidity;BMP_temperature;BMP_pressure;BME280_temperature;BME280_humidity;BME280_pressure;Samples;Min_cycle;Max_cycle;Signal;HPM_P1;HPM_P2
2023/05/05 00:01:07;;;;;;;9.30;4.95;;;11.00;79.00;;;;;;5015274;28;20060;-79
2023/05/05 00:03:36;;;;;;;7.35;4.38;;;11.10;78.90;;;;;;4999363;28;20069;-77
2023/05/05 00:06:04;;;;;;;9.27;4.93;;;11.10;78.90;;;;;;5015287;28;20095;-79
2023/05/05 00:08:30;;;;;;;7.95;4.85;;;11.10;78.90;;;;;;5015604;28;20112;-80
2023/05/05 00:10:56;;;;;;;6.32;4.60;;;11.20;78.90;;;;;;4999001;28;20505;-78
2023/05/05 00:13:22;;;;;;;10.15;5.07;;;11.30;78.70;;;;;;5015214;28;20125;-77
2023/05/05 00:15:50;;;;;;;6.28;4.95;;;11.30;78.60;;;;;;4998873;28;20034;-78
2023/05/05 00:18:17;;;;;;;6.30;4.40;;;11.30;78.80;;;;;;4999627;28;20402;-76
2023/05/05 00:20:45;;;;;;;7.15;4.50;;;11.40;78.80;;;;;;4999396;28;20472;-80
2023/05/05 00:23:11;;;;;;;7.38;5.07;;;11.40;78.90;;;;;;4999000;28;20038;-78
2023/05/05 00:25:37;;;;;;;10.02;5.15;;;11.40;78.70;;;;;;5015088;28;20123;-78
2023/05/05 00:28:03;;;;;;;8.43;4.82;;;11.50;78.90;;;;;;4998921;28;20092;-78
2023/05/05 00:30:29;;;;;;;14.57;5.68;;;11.50;78.50;;;;;;5014865;28;20037;-79
2023/05/05 00:32:56;;;;;;;8.43;5.03;;;11.50;78.50;;;;;;5014748;28;20041;-78
2023/05/05 00:35:21;;;;;;;5.65;4.70;;;11.50;78.30;;;;;;5014894;28;20049;-80
2023/05/05 00:37:48;;;;;;;6.85;4.82;;;11.50;78.20;;;;;;5015060;28;20048;-78
2023/05/05 00:40:14;;;;;;;9.15;5.25;;;11.50;78.10;;;;;;4998679;28;20042;-78
2023/05/05 00:42:42;;;;;;;7.20;4.97;;;11.50;78.20;;;;;;5014968;28;20125;-80
2023/05/05 00:45:12;;;;;;;9.75;4.90;;;11.50;78.10;;;;;;4998173;28;20083;-78
2023/05/05 00:47:40;;;;;;;7.47;4.90;;;11.50;78.20;;;;;;5014705;28;20490;-78
2023/05/05 00:50:08;;;;;;;7.30;4.80;;;11.50;78.20;;;;;;4998279;28;20041;-79
2023/05/05 00:52:36;;;;;;;8.38;5.93;;;11.50;78.00;;;;;;4981842;28;20080;-81
2023/05/05 00:55:03;;;;;;;11.35;5.63;;;11.50;77.80;;;;;;5014087;28;20045;-80
2023/05/05 00:57:29;;;;;;;7.47;5.03;;;11.50;77.90;;;;;;5014026;28;20046;-80
2023/05/05 00:59:57;;;;;;;8.27;5.07;;;11.50;78.00;;;;;;5014199;28;20044;-77
2023/05/05 01:02:23;;;;;;;8.32;5.35;;;11.40;78.10;;;;;;5014278;28;20088;-81
2023/05/05 01:04:48;;;;;;;13.77;6.05;;;11.40;78.30;;;;;;5013264;28;20131;-76
2023/05/05 01:07:33;;;;;;;10.70;4.85;;;11.30;78.30;;;;;;4981706;28;20038;-77
2023/05/05 01:10:02;;;;;;;7.88;5.43;;;11.30;78.30;;;;;;5014120;28;20048;-76
2023/05/05 01:13:11;;;;;;;7.20;5.53;;;11.30;78.30;;;;;;5014148;28;20049;-79
2023/05/05 01:15:46;;;;;;;7.03;5.72;;;11.20;78.20;;;;;;4991719;28;20076;-79
2023/05/05 01:18:28;;;;;;;9.25;5.10;;;11.10;78.30;;;;;;4997727;28;20046;-77
2023/05/05 01:21:09;;;;;;;10.55;5.60;;;11.10;78.30;;;;;;4998116;28;20390;-79
2023/05/05 01:24:16;;;;;;;9.02;5.38;;;11.10;78.20;;;;;;4997817;28;20042;-79
2023/05/05 01:26:59;;;;;;;9.07;5.65;;;11.00;78.60;;;;;;5014055;28;20041;-80
2023/05/05 01:29:48;;;;;;;8.60;5.72;;;11.00;78.50;;;;;;5013821;28;20037;-78
2023/05/05 01:32:18;;;;;;;9.32;6.32;;;11.00;78.50;;;;;;5013985;28;20389;-77
2023/05/05 01:34:52;;;;;;;8.50;5.93;;;11.00;78.40;;;;;;4997461;28;20073;-80
2023/05/05 01:37:23;;;;;;;9.30;5.55;;;11.00;78.60;;;;;;4996976;28;20034;-80
2023/05/05 01:39:54;;;;;;;14.43;6.20;;;11.00;78.60;;;;;;5013597;28;20046;-80
2023/05/05 01:42:21;;;;;;;9.57;5.90;;;11.00;78.60;;;;;;4997472;28;20037;-79
2023/05/05 01:44:48;;;;;;;8.75;5.80;;;11.00;78.70;;;;;;5013808;28;20077;-80
2023/05/05 01:47:17;;;;;;;9.80;5.93;;;11.00;78.80;;;;;;5013617;28;20129;-78
2023/05/05 01:49:45;;;;;;;8.10;5.22;;;11.00;78.90;;;;;;5013753;28;20164;-78
2023/05/05 01:52:13;;;;;;;12.60;5.78;;;11.00;79.00;;;;;;5013590;28;20048;-79
2023/05/05 01:54:39;;;;;;;7.22;5.50;;;11.00;78.50;;;;;;4997204;28;20049;-78
2023/05/05 01:57:07;;;;;;;10.77;6.47;;;11.00;78.40;;;;;;5012789;28;20053;-79
2023/05/05 01:59:34;;;;;;;9.15;5.35;;;11.10;78.20;;;;;;5012739;28;20088;-79
2023/05/05 02:02:02;;;;;;;8.55;5.38;;;11.10;78.20;;;;;;4997094;28;20108;-79
2023/05/05 02:04:30;;;;;;;8.32;5.45;;;11.10;77.90;;;;;;4997061;28;20475;-80
2023/05/05 02:06:58;;;;;;;10.25;5.45;;;11.10;78.10;;;;;;4996814;28;20084;-78
2023/05/05 02:09:25;;;;;;;9.05;5.20;;;11.10;78.20;;;;;;5013119;28;20077;-80
2023/05/05 02:11:52;;;;;;;10.25;5.95;;;11.10;78.20;;;;;;4980271;28;20081;-78
2023/05/05 02:14:19;;;;;;;7.63;5.13;;;11.10;78.50;;;;;;5012615;28;20042;-80
2023/05/05 02:16:46;;;;;;;10.90;5.35;;;11.10;78.30;;;;;;4995897;28;20129;-78
2023/05/05 02:19:13;;;;;;;8.18;5.45;;;11.00;78.00;;;;;;5012862;28;20049;-80
2023/05/05 02:21:40;;;;;;;6.80;4.95;;;11.10;77.90;;;;;;4996213;28;20046;-80
2023/05/05 02:24:07;;;;;;;8.68;5.32;;;11.10;77.90;;;;;;5012432;28;20041;-79
2023/05/05 02:26:37;;;;;;;12.75;6.75;;;11.10;77.80;;;;;;4996183;28;20081;-79
2023/05/05 02:29:15;;;;;;;7.57;5.32;;;11.00;78.00;;;;;;5012979;28;20049;-79
2023/05/05 02:31:45;;;;;;;10.80;5.43;;;11.00;78.10;;;;;;4996036;28;20124;-80
2023/05/05 02:34:15;;;;;;;9.05;5.55;;;11.00;78.10;;;;;;5013112;28;20049;-76
2023/05/05 02:36:42;;;;;;;11.07;5.38;;;11.00;78.20;;;;;;5012423;28;20046;-82
2023/05/05 02:39:24;;;;;;;10.98;5.82;;;11.00;78.40;;;;;;4996422;28;20046;-80
2023/05/05 02:41:51;;;;;;;8.82;5.55;;;11.00;78.40;;;;;;5012375;28;20037;-80
2023/05/05 02:44:20;;;;;;;10.88;6.68;;;11.00;78.70;;;;;;5012948;28;20072;-80
2023/05/05 02:46:46;;;;;;;9.52;6.50;;;11.00;78.30;;;;;;5012990;28;20394;-77
2023/05/05 02:49:13;;;;;;;7.75;5.68;;;11.00;78.50;;;;;;4979756;28;20100;-79
2023/05/05 02:51:39;;;;;;;8.45;5.97;;;11.00;78.60;;;;;;4995861;28;20038;-80
2023/05/05 02:54:05;;;;;;;11.23;6.78;;;11.00;78.90;;;;;;5012530;28;20551;-80
2023/05/05 02:56:41;;;;;;;9.20;5.78;;;11.00;78.70;;;;;;5012932;28;20064;-81
2023/05/05 02:59:22;;;;;;;8.63;5.88;;;11.00;78.60;;;;;;4996519;28;20042;-80
2023/05/05 03:02:18;;;;;;;7.80;5.55;;;11.00;78.70;;;;;;5011994;28;20049;-80
2023/05/05 03:05:03;;;;;;;9.82;5.32;;;11.00;78.80;;;;;;4992056;28;20249;-81
2023/05/05 03:07:47;;;;;;;10.07;5.40;;;11.00;78.80;;;;;;4995508;28;20045;-79
2023/05/05 03:10:17;;;;;;;7.10;6.00;;;11.00;79.00;;;;;;5011956;28;20494;-78
2023/05/05 03:12:53;;;;;;;10.07;6.32;;;11.00;78.80;;;;;;4995786;28;20045;-80
2023/05/05 03:15:23;;;;;;;6.43;5.72;;;11.00;78.70;;;;;;4995807;28;20049;-79
2023/05/05 03:17:51;;;;;;;8.15;6.20;;;11.00;78.80;;;;;;5012223;28;20056;-79
2023/05/05 03:20:18;;;;;;;9.52;6.53;;;11.10;78.80;;;;;;4996548;28;20057;-80
2023/05/05 03:22:44;;;;;;;10.60;7.35;;;11.10;78.70;;;;;;4996111;28;20037;-78
2023/05/05 03:25:10;;;;;;;9.00;6.45;;;11.00;78.90;;;;;;4996290;28;20120;-81
2023/05/05 03:27:35;;;;;;;10.90;7.50;;;11.00;79.10;;;;;;5013238;28;20497;-82
2023/05/05 03:30:01;;;;;;;13.52;7.30;;;11.10;79.30;;;;;;5016776;28;20041;-78
2023/05/05 03:32:29;;;;;;;15.60;7.65;;;11.00;79.50;;;;;;5016026;28;20486;-78
2023/05/05 03:34:55;;;;;;;11.15;7.10;;;11.10;79.90;;;;;;5016248;28;20041;-80
2023/05/05 03:37:21;;;;;;;10.75;7.93;;;11.10;80.10;;;;;;4999409;28;20045;-80
2023/05/05 03:39:46;;;;;;;13.15;8.40;;;11.10;80.50;;;;;;4999353;28;20042;-82
2023/05/05 03:42:12;;;;;;;11.55;8.55;;;11.10;81.00;;;;;;4983369;28;20038;-80
2023/05/05 03:44:38;;;;;;;12.68;9.18;;;11.10;80.70;;;;;;5015662;28;20034;-80
2023/05/05 03:47:04;;;;;;;12.82;8.85;;;11.00;81.60;;;;;;4982925;28;20041;-82
2023/05/05 03:49:29;;;;;;;9.60;7.88;;;11.10;82.30;;;;;;4999409;28;20049;-80
2023/05/05 03:51:55;;;;;;;11.77;8.82;;;11.00;81.80;;;;;;4999636;28;20096;-79
2023/05/05 03:54:21;;;;;;;12.02;8.40;;;11.00;82.00;;;;;;4998938;28;20422;-79
2023/05/05 03:56:46;;;;;;;12.77;9.13;;;11.00;83.90;;;;;;4998809;28;20034;-81
2023/05/05 03:59:12;;;;;;;8.65;7.22;;;11.00;83.50;;;;;;5015571;28;20142;-82
2023/05/05 04:01:38;;;;;;;10.38;7.82;;;10.90;84.70;;;;;;4998617;28;20504;-79
2023/05/05 04:04:04;;;;;;;10.23;6.00;;;10.90;83.70;;;;;;5015409;28;20042;-81
2023/05/05 04:06:30;;;;;;;14.35;9.05;;;10.90;83.80;;;;;;4998790;28;20546;-76
2023/05/05 04:08:56;;;;;;;15.25;10.48;;;10.80;84.40;;;;;;4998784;28;20087;-81
2023/05/05 04:11:22;;;;;;;15.07;9.18;;;10.80;84.40;;;;;;4998340;28;20053;-79
2023/05/05 04:13:48;;;;;;;13.63;8.88;;;10.80;84.20;;;;;;4998474;28;20088;-78
2023/05/05 04:16:15;;;;;;;15.32;10.00;;;10.80;84.10;;;;;;5014377;28;20046;-81
2023/05/05 04:18:41;;;;;;;12.02;9.02;;;10.70;85.10;;;;;;4982063;28;20073;-79
2023/05/05 04:21:06;;;;;;;11.60;8.52;;;10.70;84.90;;;;;;4982119;28;20076;-80
2023/05/05 04:23:32;;;;;;;10.52;8.88;;;10.60;85.60;;;;;;4998083;28;20064;-79
2023/05/05 04:25:58;;;;;;;13.02;9.43;;;10.60;86.30;;;;;;4997797;28;20038;-81
2023/05/05 04:28:23;;;;;;;16.05;9.95;;;10.60;86.20;;;;;;4991156;28;20045;-79
2023/05/05 04:30:49;;;;;;;13.13;9.65;;;10.50;85.30;;;;;;5017372;28;20091;-78
2023/05/05 04:33:15;;;;;;;14.90;10.32;;;10.50;85.80;;;;;;5033642;28;20048;-79
2023/05/05 04:35:40;;;;;;;15.18;10.98;;;10.50;86.30;;;;;;5017287;28;20033;-80
2023/05/05 04:38:06;;;;;;;11.90;9.55;;;10.50;86.10;;;;;;5017923;28;20046;-79
2023/05/05 04:40:32;;;;;;;10.35;9.25;;;10.50;86.50;;;;;;5017766;28;20033;-81
2023/05/05 04:42:58;;;;;;;15.52;10.45;;;10.50;85.70;;;;;;5034198;28;20038;-79
2023/05/05 04:45:23;;;;;;;10.85;9.30;;;10.50;85.70;;;;;;5017917;28;20041;-79
2023/05/05 04:47:49;;;;;;;11.35;9.63;;;10.50;86.10;;;;;;5017960;28;20561;-80
2023/05/05 04:50:15;;;;;;;16.65;10.85;;;10.40;86.70;;;;;;5033947;28;20033;-81
2023/05/05 04:52:41;;;;;;;15.52;10.27;;;10.40;86.70;;;;;;5017615;28;20064;-79
2023/05/05 04:55:09;;;;;;;13.70;10.55;;;10.40;87.30;;;;;;5017523;28;20080;-79
2023/05/05 04:57:34;;;;;;;13.63;10.38;;;10.40;87.20;;;;;;5033847;28;20076;-80
2023/05/05 05:00:04;;;;;;;12.98;9.90;;;10.40;87.70;;;;;;5017694;28;20047;-78
2023/05/05 05:02:29;;;;;;;13.02;9.98;;;10.30;87.90;;;;;;5017282;28;20053;-81
2023/05/05 05:04:55;;;;;;;12.02;10.20;;;10.30;88.30;;;;;;5017644;28;20059;-79
2023/05/05 05:07:21;;;;;;;15.60;10.02;;;10.30;87.90;;;;;;5017540;28;20045;-80
2023/05/05 05:09:46;;;;;;;13.63;10.13;;;10.30;87.90;;;;;;5017636;28;20091;-81
2023/05/05 05:12:12;;;;;;;15.00;9.88;;;10.30;88.00;;;;;;5033812;28;20492;-81
2023/05/05 05:14:38;;;;;;;14.45;11.10;;;10.30;87.50;;;;;;5033706;28;20045;-80
2023/05/05 05:17:05;;;;;;;19.23;12.30;;;10.30;88.00;;;;;;5017264;28;20049;-81
2023/05/05 05:19:31;;;;;;;14.77;12.18;;;10.30;88.20;;;;;;5033583;28;20124;-80
2023/05/05 05:21:56;;;;;;;14.40;10.75;;;10.40;88.40;;;;;;5001103;28;20124;-81
2023/05/05 05:24:23;;;;;;;13.80;10.65;;;10.40;88.00;;;;;;5033670;28;20049;-82
2023/05/05 05:26:49;;;;;;;15.00;10.93;;;10.50;88.20;;;;;;5017190;28;20045;-79
2023/05/05 05:29:15;;;;;;;13.68;10.80;;;10.50;88.30;;;;;;5000776;28;20041;-82
2023/05/05 05:31:41;;;;;;;15.15;11.93;;;10.50;88.80;;;;;;5033278;28;20463;-80
2023/05/05 05:34:06;;;;;;;16.52;11.35;;;10.50;88.80;;;;;;5033673;28;20048;-79
2023/05/05 05:36:32;;;;;;;16.38;11.60;;;10.50;88.90;;;;;;5000430;28;20417;-80
2023/05/05 05:38:58;;;;;;;16.33;10.82;;;10.50;88.60;;;;;;5033549;28;20038;-81
2023/05/05 05:41:23;;;;;;;14.10;11.10;;;10.50;88.60;;;;;;5016897;28;20041;-81
2023/05/05 05:43:49;;;;;;;16.02;11.68;;;10.50;88.70;;;;;;5000693;28;20041;-80
2023/05/05 05:46:15;;;;;;;14.15;11.70;;;10.50;88.70;;;;;;5018726;28;20045;-80
2023/05/05 05:48:41;;;;;;;15.02;11.55;;;10.50;88.60;;;;;;5001009;28;20129;-81
2023/05/05 05:51:06;;;;;;;16.95;11.65;;;10.50;88.60;;;;;;4999763;28;20060;-80
2023/05/05 05:53:33;;;;;;;15.15;11.10;;;10.60;88.70;;;;;;5016626;28;20045;-79
2023/05/05 05:56:00;;;;;;;14.00;10.90;;;10.60;88.50;;;;;;5016958;28;20038;-81
2023/05/05 05:58:25;;;;;;;14.35;10.95;;;10.60;89.10;;;;;;5016840;28;20075;-83
2023/05/05 06:00:51;;;;;;;14.40;11.98;;;10.70;89.20;;;;;;5016678;28;20508;-78
2023/05/05 06:03:17;;;;;;;13.68;11.25;;;10.70;89.00;;;;;;5028854;28;20040;-81
2023/05/05 06:05:44;;;;;;;13.95;11.80;;;10.80;88.90;;;;;;5025961;28;20045;-81
2023/05/05 06:08:10;;;;;;;15.65;11.02;;;10.90;88.70;;;;;;5058755;28;20040;-81
2023/05/05 06:10:36;;;;;;;21.90;12.18;;;10.90;88.30;;;;;;5042213;28;20022;-80
2023/05/05 06:13:02;;;;;;;17.00;10.85;;;11.00;88.20;;;;;;5042134;28;20029;-82
2023/05/05 06:15:27;;;;;;;14.50;11.93;;;11.10;88.60;;;;;;5023022;28;20042;-81
2023/05/05 06:17:53;;;;;;;14.05;12.15;;;11.20;88.90;;;;;;5022411;28;20312;-82
2023/05/05 06:20:19;;;;;;;15.43;11.95;;;11.40;88.40;;;;;;5038046;28;20319;-81
2023/05/05 06:22:44;;;;;;;17.38;11.98;;;11.50;88.10;;;;;;5021959;28;20049;-80
2023/05/05 06:25:10;;;;;;;13.45;11.00;;;11.60;87.80;;;;;;5042401;28;20061;-82
2023/05/05 06:27:36;;;;;;;14.23;11.40;;;11.60;87.70;;;;;;5016413;28;20129;-80
2023/05/05 06:30:02;;;;;;;17.42;12.68;;;11.60;88.20;;;;;;5033094;28;20041;-81
2023/05/05 06:32:27;;;;;;;16.75;12.18;;;11.60;88.00;;;;;;5016415;28;20509;-82
2023/05/05 06:34:53;;;;;;;14.20;11.38;;;11.70;88.00;;;;;;5016430;28;20092;-82
2023/05/05 06:37:19;;;;;;;16.13;11.63;;;11.80;87.60;;;;;;5016007;28;20087;-79
2023/05/05 06:39:45;;;;;;;17.55;13.27;;;11.90;87.90;;;;;;5016265;28;20041;-81
2023/05/05 06:42:10;;;;;;;12.93;11.63;;;12.00;87.60;;;;;;5016036;28;20041;-82
2023/05/05 06:44:36;;;;;;;17.23;11.52;;;12.00;87.40;;;;;;5032371;28;20482;-79
2023/05/05 06:47:02;;;;;;;15.82;12.70;;;12.20;87.50;;;;;;5015832;28;20042;-79
2023/05/05 06:49:31;;;;;;;14.05;11.60;;;12.20;87.60;;;;;;5032129;28;20371;-79
2023/05/05 06:51:57;;;;;;;15.57;11.30;;;12.30;87.30;;;;;;4999518;28;20044;-81
2023/05/05 06:54:22;;;;;;;14.70;12.15;;;12.40;87.20;;;;;;5032251;28;20053;-81
2023/05/05 06:56:48;;;;;;;14.30;11.50;;;12.50;86.90;;;;;;4999358;28;20041;-79
2023/05/05 06:59:14;;;;;;;14.77;11.98;;;12.50;86.70;;;;;;5015723;28;20045;-78
2023/05/05 07:01:40;;;;;;;14.15;11.48;;;12.60;86.80;;;;;;5015093;28;20053;-81
2023/05/05 07:04:05;;;;;;;14.60;12.48;;;12.70;86.70;;;;;;5031589;28;20128;-79
2023/05/05 07:06:31;;;;;;;16.40;10.63;;;12.80;86.50;;;;;;5015637;28;20507;-80
2023/05/05 07:08:57;;;;;;;13.75;12.35;;;12.80;86.20;;;;;;4999158;28;20045;-80
2023/05/05 07:11:23;;;;;;;15.57;12.48;;;13.00;86.10;;;;;;5015454;28;20128;-78
2023/05/05 07:13:48;;;;;;;16.02;12.50;;;13.00;85.90;;;;;;5032421;28;20063;-80
2023/05/05 07:16:14;;;;;;;16.33;12.57;;;13.20;85.90;;;;;;5015649;28;20409;-80
2023/05/05 07:18:40;;;;;;;17.52;13.10;;;13.20;85.70;;;;;;4999130;28;20042;-78
2023/05/05 07:21:06;;;;;;;20.02;14.07;;;13.40;85.90;;;;;;5032141;28;20056;-80
2023/05/05 07:23:32;;;;;;;17.63;14.05;;;13.40;85.70;;;;;;4998782;28;20469;-81
2023/05/05 07:25:58;;;;;;;18.80;13.57;;;13.50;85.90;;;;;;5015450;28;20041;-78
2023/05/05 07:28:24;;;;;;;14.25;12.63;;;13.60;85.40;;;;;;5031665;28;20508;-76
2023/05/05 07:30:50;;;;;;;17.17;14.02;;;13.70;85.20;;;;;;5031864;28;20073;-77
2023/05/05 07:33:17;;;;;;;18.13;12.38;;;14.00;84.80;;;;;;5032022;28;20110;-78
2023/05/05 07:35:43;;;;;;;17.20;14.02;;;14.00;83.20;;;;;;5015214;28;20046;-79
2023/05/05 07:38:09;;;;;;;17.00;13.73;;;14.00;83.80;;;;;;5031692;28;20045;-78
2023/05/05 07:40:35;;;;;;;17.35;12.85;;;14.10;83.90;;;;;;5013402;28;20045;-78
2023/05/05 07:43:01;;;;;;;15.43;13.20;;;14.20;84.20;;;;;;4984894;28;20419;-78
2023/05/05 07:45:27;;;;;;;16.63;13.02;;;14.40;84.30;;;;;;4976076;28;20126;-78
2023/05/05 07:47:53;;;;;;;17.52;13.02;;;14.60;83.90;;;;;;4992121;28;20164;-79
2023/05/05 07:50:19;;;;;;;19.13;14.10;;;14.70;83.40;;;;;;4992149;28;20125;-80
2023/05/05 07:52:45;;;;;;;16.27;13.35;;;14.90;83.50;;;;;;4960185;28;20045;-78
2023/05/05 07:55:11;;;;;;;16.05;14.43;;;14.80;82.90;;;;;;4992065;28;20030;-80
2023/05/05 07:57:38;;;;;;;21.15;14.55;;;14.90;83.30;;;;;;4975866;28;20034;-79
2023/05/05 08:00:04;;;;;;;19.75;13.52;;;15.00;82.90;;;;;;4991969;28;20035;-78
2023/05/05 08:02:30;;;;;;;16.08;13.25;;;15.20;82.90;;;;;;4975712;28;20054;-79
2023/05/05 08:04:55;;;;;;;20.73;14.90;;;15.30;82.70;;;;;;4992088;28;20065;-83
2023/05/05 08:07:21;;;;;;;17.20;14.38;;;15.50;82.00;;;;;;4976279;28;20078;-77
2023/05/05 08:09:47;;;;;;;18.23;15.23;;;15.50;82.10;;;;;;4990708;28;20052;-77
2023/05/05 08:12:14;;;;;;;16.90;15.10;;;15.50;82.10;;;;;;4974246;28;20053;-81
2023/05/05 08:14:41;;;;;;;18.48;16.27;;;15.50;81.90;;;;;;4994145;28;20104;-81
2023/05/05 08:17:07;;;;;;;17.50;15.80;;;15.50;81.80;;;;;;4995568;28;20057;-81
2023/05/05 08:19:33;;;;;;;22.20;17.33;;;15.50;81.50;;;;;;4979304;28;20084;-81
2023/05/05 08:22:00;;;;;;;18.42;16.00;;;15.50;82.30;;;;;;4979738;28;20069;-81
2023/05/05 08:24:25;;;;;;;18.45;15.20;;;15.50;82.10;;;;;;4947753;28;20079;-81
2023/05/05 08:26:51;;;;;;;20.33;16.13;;;15.50;82.10;;;;;;4995373;28;20077;-81
2023/05/05 08:29:17;;;;;;;23.60;16.77;;;15.50;82.40;;;;;;4994998;28;20152;-82
2023/05/05 08:31:43;;;;;;;20.80;16.35;;;15.50;82.20;;;;;;4979510;28;20073;-81
2023/05/05 08:34:12;;;;;;;18.58;16.58;;;15.60;82.50;;;;;;4995285;28;20133;-82
2023/05/05 08:36:37;;;;;;;20.98;16.95;;;15.70;82.40;;;;;;4963270;28;20100;-81
2023/05/05 08:39:03;;;;;;;19.67;16.88;;;15.80;82.30;;;;;;4995242;28;20050;-82
2023/05/05 08:41:29;;;;;;;20.13;17.15;;;16.00;81.50;;;;;;4979046;28;20483;-81
2023/05/05 08:43:57;;;;;;;21.80;17.77;;;15.90;81.80;;;;;;4963901;28;20062;-83
2023/05/05 08:46:25;;;;;;;19.25;17.23;;;16.00;82.00;;;;;;4995006;28;20503;-82
2023/05/05 08:48:54;;;;;;;20.20;17.50;;;16.10;81.90;;;;;;4962855;28;20544;-79
2023/05/05 08:51:20;;;;;;;22.02;18.25;;;16.10;81.90;;;;;;4995033;28;20074;-82
2023/05/05 08:53:59;;;;;;;23.10;17.75;;;16.10;81.70;;;;;;4978749;28;20049;-83
2023/05/05 08:56:30;;;;;;;23.58;17.02;;;16.10;81.70;;;;;;4978353;28;20050;-84
2023/05/05 08:58:58;;;;;;;18.10;16.13;;;16.10;82.00;;;;;;4994842;28;20034;-83
2023/05/05 09:01:24;;;;;;;25.13;18.65;;;16.20;82.10;;;;;;4978998;28;20034;-82
2023/05/05 09:03:50;;;;;;;20.95;18.55;;;16.30;81.90;;;;;;4962580;28;20089;-82
2023/05/05 09:06:19;;;;;;;25.10;18.52;;;16.40;81.90;;;;;;4946724;28;20050;-82
2023/05/05 09:08:45;;;;;;;21.55;17.67;;;16.50;81.70;;;;;;4978513;28;20050;-82
2023/05/05 09:11:11;;;;;;;26.08;18.45;;;16.60;81.20;;;;;;4962720;28;20469;-82
2023/05/05 09:13:36;;;;;;;24.17;18.52;;;16.70;81.30;;;;;;4962169;28;20081;-82
2023/05/05 09:16:02;;;;;;;20.23;17.92;;;16.90;81.30;;;;;;4978076;28;20060;-84
2023/05/05 09:18:28;;;;;;;21.13;18.35;;;16.90;80.60;;;;;;4977869;28;20117;-80
2023/05/05 09:20:54;;;;;;;24.42;18.45;;;17.00;80.70;;;;;;4977867;28;20053;-83
2023/05/05 09:23:20;;;;;;;20.52;16.65;;;17.10;80.90;;;;;;4993967;28;20053;-79
2023/05/05 09:26:01;;;;;;;20.25;17.85;;;17.10;80.20;;;;;;4993101;28;20046;-83
2023/05/05 09:28:26;;;;;;;23.05;18.42;;;17.10;80.10;;;;;;4994314;28;20049;-82
2023/05/05 09:30:52;;;;;;;21.60;18.42;;;17.20;80.40;;;;;;4978092;28;20049;-80
2023/05/05 09:33:31;;;;;;;20.67;18.23;;;17.30;80.40;;;;;;4978154;28;20042;-79
2023/05/05 09:35:57;;;;;;;19.02;16.55;;;17.30;80.00;;;;;;4993982;28;20494;-80
2023/05/05 09:38:24;;;;;;;22.98;16.98;;;17.30;80.20;;;;;;4994063;28;20049;-80
2023/05/05 09:40:51;;;;;;;18.88;14.60;;;17.40;79.50;;;;;;4994063;28;20446;-80
2023/05/05 09:43:22;;;;;;;20.48;18.00;;;17.50;78.50;;;;;;4977893;28;20046;-81
2023/05/05 09:45:48;;;;;;;24.50;18.30;;;17.50;78.10;;;;;;4977903;28;20046;-80
2023/05/05 09:48:29;;;;;;;22.63;15.63;;;17.60;77.80;;;;;;4961947;28;20101;-80
2023/05/05 09:50:55;;;;;;;18.35;14.07;;;17.70;77.50;;;;;;4993917;28;20038;-80
2023/05/05 09:53:22;;;;;;;17.65;10.40;;;17.90;77.30;;;;;;4977829;28;20050;-82
2023/05/05 09:55:56;;;;;;;15.05;11.13;;;17.90;76.60;;;;;;4993756;28;20050;-81
2023/05/05 09:58:29;;;;;;;15.95;11.32;;;18.00;76.00;;;;;;4994520;28;20399;-83
2023/05/05 10:00:57;;;;;;;14.57;10.50;;;18.10;75.50;;;;;;4978241;28;20042;-82
2023/05/05 10:03:23;;;;;;;13.15;10.60;;;18.20;75.00;;;;;;4977908;28;20058;-82
2023/05/05 10:05:51;;;;;;;13.57;10.40;;;18.20;74.80;;;;;;4977883;28;20046;-82
2023/05/05 10:08:19;;;;;;;13.57;10.60;;;18.10;74.40;;;;;;4977685;28;20396;-82
2023/05/05 10:11:05;;;;;;;14.90;10.85;;;18.00;74.90;;;;;;4992297;28;20101;-81
2023/05/05 10:13:35;;;;;;;14.02;9.98;;;18.20;74.90;;;;;;4992286;28;20121;-78
2023/05/05 10:16:03;;;;;;;19.75;11.48;;;18.20;75.00;;;;;;4993025;28;20165;-83
2023/05/05 10:18:31;;;;;;;14.60;9.85;;;18.30;74.60;;;;;;4976508;28;20057;-79
2023/05/05 10:21:02;;;;;;;12.65;10.18;;;18.40;74.50;;;;;;4977051;28;20394;-82
2023/05/05 10:23:38;;;;;;;12.63;9.40;;;18.60;73.80;;;;;;4976665;28;20038;-81
2023/05/05 10:26:11;;;;;;;15.32;9.88;;;18.80;73.00;;;;;;4977500;28;20078;-79
2023/05/05 10:28:47;;;;;;;12.32;9.73;;;18.90;72.20;;;;;;4993239;28;20046;-82
2023/05/05 10:31:19;;;;;;;11.90;8.20;;;19.00;72.40;;;;;;4976988;28;20050;-81
2023/05/05 10:34:20;;;;;;;9.75;7.97;;;19.10;72.00;;;;;;4993379;28;20046;-81
2023/05/05 10:36:46;;;;;;;10.00;8.15;;;19.10;70.10;;;;;;4959553;28;20058;-83
2023/05/05 10:39:15;;;;;;;10.30;8.60;;;18.90;70.70;;;;;;4976705;28;20046;-84
2023/05/05 10:41:41;;;;;;;10.88;7.38;;;18.90;71.30;;;;;;4976655;28;20042;-82
2023/05/05 10:44:09;;;;;;;10.13;7.20;;;19.00;71.10;;;;;;4960808;28;20041;-82
2023/05/05 10:46:35;;;;;;;7.28;6.13;;;18.90;70.40;;;;;;4960979;28;20038;-81
2023/05/05 10:49:24;;;;;;;5.45;4.78;;;18.80;70.30;;;;;;4960476;28;20045;-81
2023/05/05 10:51:53;;;;;;;6.15;4.28;;;18.70;69.30;;;;;;4992951;28;20451;-80
2023/05/05 10:54:22;;;;;;;7.50;5.80;;;18.60;69.70;;;;;;4992407;28;20046;-82
2023/05/05 10:56:48;;;;;;;7.68;5.50;;;18.50;69.70;;;;;;4992552;28;20051;-80
2023/05/05 10:59:41;;;;;;;7.25;5.03;;;18.50;70.20;;;;;;4976479;28;20088;-83
2023/05/05 11:02:23;;;;;;;7.57;5.25;;;18.50;70.20;;;;;;4991268;28;20047;-83
2023/05/05 11:05:19;;;;;;;7.57;5.57;;;18.50;70.60;;;;;;4992472;28;20093;-80
2023/05/05 11:07:48;;;;;;;9.13;6.20;;;18.50;70.60;;;;;;4992521;28;20046;-83
2023/05/05 11:10:16;;;;;;;7.30;6.50;;;18.40;70.90;;;;;;4992821;28;20046;-84
2023/05/05 11:12:50;;;;;;;9.73;6.78;;;18.30;71.50;;;;;;4960536;28;20046;-82
2023/05/05 11:15:28;;;;;;;10.57;6.90;;;18.30;71.60;;;;;;4976196;28;20042;-84
2023/05/05 11:18:03;;;;;;;9.00;8.07;;;18.20;72.00;;;;;;4987661;28;20552;-82
2023/05/05 11:20:44;;;;;;;10.98;7.63;;;18.30;72.40;;;;;;4996234;28;20092;-81
2023/05/05 11:23:10;;;;;;;11.52;8.10;;;18.30;72.70;;;;;;5012210;28;20065;-79
2023/05/05 11:25:39;;;;;;;12.32;7.97;;;18.40;73.10;;;;;;5011139;28;20594;-82
2023/05/05 11:28:23;;;;;;;10.02;7.20;;;18.40;72.60;;;;;;4996490;28;20046;-81
2023/05/05 11:31:15;;;;;;;13.55;8.80;;;18.40;72.70;;;;;;4976227;28;20038;-81
2023/05/05 11:33:41;;;;;;;9.45;7.97;;;18.50;72.00;;;;;;4976223;28;20078;-82
2023/05/05 11:36:07;;;;;;;10.18;7.85;;;18.50;72.30;;;;;;4959845;28;20084;-82
2023/05/05 11:38:43;;;;;;;8.68;7.78;;;18.50;72.30;;;;;;4960282;28;20039;-82
2023/05/05 11:41:21;;;;;;;10.80;8.27;;;18.50;72.30;;;;;;4992703;28;20434;-83
2023/05/05 11:43:46;;;;;;;8.50;6.60;;;18.60;72.30;;;;;;4992203;28;20557;-80
2023/05/05 11:46:16;;;;;;;9.73;6.97;;;18.50;70.90;;;;;;4960076;28;20054;-81
2023/05/05 11:48:52;;;;;;;9.13;6.70;;;18.50;70.90;;;;;;4992534;28;20097;-80
2023/05/05 11:51:18;;;;;;;9.52;6.72;;;18.50;70.40;;;;;;4963904;28;20126;-81
2023/05/05 11:53:46;;;;;;;12.82;8.88;;;18.40;71.00;;;;;;4963946;28;20095;-81
2023/05/05 11:56:21;;;;;;;9.40;7.25;;;18.40;71.20;;;;;;4979956;28;20511;-84
2023/05/05 11:59:07;;;;;;;9.80;7.15;;;18.40;71.70;;;;;;4963718;28;20065;-81
2023/05/05 12:01:33;;;;;;;8.20;5.90;;;18.40;71.60;;;;;;5012825;28;20038;-82
2023/05/05 12:03:59;;;;;;;11.80;7.30;;;18.40;71.90;;;;;;4990129;28;20094;-84
2023/05/05 12:06:26;;;;;;;7.80;6.30;;;18.40;72.00;;;;;;5004915;28;20038;-83
2023/05/05 12:08:52;;;;;;;8.73;6.15;;;18.40;70.30;;;;;;4990407;28;20441;-79
2023/05/05 12:11:18;;;;;;;8.60;6.40;;;18.40;70.40;;;;;;5048657;28;20042;-82
2023/05/05 12:13:45;;;;;;;8.98;6.70;;;18.30;71.10;;;;;;4988449;28;20057;-80
2023/05/05 12:16:12;;;;;;;8.75;6.18;;;18.20;70.70;;;;;;4967336;28;20038;-80
2023/05/05 12:18:39;;;;;;;15.02;9.05;;;18.10;71.40;;;;;;5030508;28;20417;-79
2023/05/05 12:21:18;;;;;;;8.57;6.75;;;18.00;71.50;;;;;;5035688;28;20037;-77
2023/05/05 12:23:44;;;;;;;15.25;8.20;;;18.00;72.40;;;;;;5035525;28;20041;-79
2023/05/05 12:26:24;;;;;;;9.73;7.10;;;18.00;72.60;;;;;;5035638;28;20038;-81
2023/05/05 12:28:50;;;;;;;11.02;8.02;;;17.90;73.10;;;;;;5035192;28;20045;-82
2023/05/05 12:31:15;;;;;;;10.68;7.10;;;17.90;73.50;;;;;;5035635;28;20045;-79
2023/05/05 12:33:41;;;;;;;12.23;9.23;;;18.00;74.00;;;;;;5027296;28;20512;-80
2023/05/05 12:36:08;;;;;;;12.90;8.40;;;17.90;74.30;;;;;;5008601;28;20046;-80
2023/05/05 12:38:35;;;;;;;13.18;8.43;;;17.90;74.80;;;;;;4995182;28;20041;-78
2023/05/05 12:41:01;;;;;;;9.30;7.95;;;17.80;74.80;;;;;;4999356;28;20129;-79
2023/05/05 12:43:33;;;;;;;11.68;8.48;;;17.80;75.10;;;;;;4999139;28;20046;-79